This is the latest recevied weather packets stored in our database for station/object KGRR-WX. If no packets are shown the sender has not sent any weather packets the latest 1 day(s).
| Time | Temp. | Humidity | Pressure | Rain* | Wind** | Luminosity | Snow |
|---|---|---|---|---|---|---|---|
| 1778015705 | 12.22° C | 34% | 981 hPa | 0 mm | 6.26 m/s, 277° | - | - |
| 1778014824 | 12.22° C | 34% | 981 hPa | 0 mm | 6.26 m/s, 277° | - | - |
| 1778013905 | 12.22° C | 36% | 981.5 hPa | 0 mm | 6.26 m/s, 276° | - | - |
| 1778013022 | 12.22° C | 35% | 980.7 hPa | 0 mm | 6.26 m/s, 275° | - | - |
| 1778012105 | 12.22° C | 35% | 980.7 hPa | 0 mm | 6.26 m/s, 272° | - | - |
| 1778011222 | 12.22° C | 35% | 980.7 hPa | 0 mm | 6.71 m/s, 268° | - | - |
| 1778010304 | 12.22° C | 31% | 980.4 hPa | 0 mm | 6.71 m/s, 266° | - | - |
| 1778009414 | 12.78° C | 31% | 980.4 hPa | 0 mm | 6.71 m/s, 271° | - | - |
| 1778008507 | 12.22° C | 31% | 980.4 hPa | 0 mm | 6.71 m/s, 270° | - | - |
| 1778007617 | 12.78° C | 31% | 980.4 hPa | 0 mm | 6.71 m/s, 271° | - | - |
| 1778006707 | 12.22° C | 33% | 981.1 hPa | 0 mm | 6.71 m/s, 270° | - | - |
| 1778005823 | 12.22° C | 34% | 980.4 hPa | 0 mm | 7.15 m/s, 270° | - | - |
| 1778004907 | 12.78° C | 34% | 980.4 hPa | 0 mm | 6.71 m/s, 267° | - | - |
| 1778004023 | 12.78° C | 34% | 980.4 hPa | 0 mm | 6.71 m/s, 267° | - | - |
| 1778003108 | 12.78° C | 33% | 979.7 hPa | 0 mm | 6.71 m/s, 272° | - | - |
| 1778002214 | 12.78° C | 33% | 978.9 hPa | 0 mm | 6.71 m/s, 273° | - | - |
| 1778001307 | 12.78° C | 33% | 978.9 hPa | 0 mm | 6.26 m/s, 270° | - | - |
| 1778000418 | 12.78° C | 33% | 978.9 hPa | 0 mm | 6.26 m/s, 271° | - | - |
| 1777999507 | 12.78° C | 33% | 979.6 hPa | 0 mm | 6.26 m/s, 277° | - | - |
| 1777998622 | 12.78° C | 30% | 977.8 hPa | 0 mm | 6.26 m/s, 276° | - | - |
| 1777997708 | 12.22° C | 30% | 977.8 hPa | 0 mm | 5.81 m/s, 276° | - | - |
| 1777996826 | 12.22° C | 30% | 977.8 hPa | 0 mm | 5.81 m/s, 280° | - | - |
| 1777995905 | 11.67° C | 36% | 979.8 hPa | 0 mm | 5.81 m/s, 269° | - | - |
| 1777995023 | 12.22° C | 33% | 978.7 hPa | 0 mm | 6.26 m/s, 266° | - | - |
| 1777994107 | 11.67° C | 33% | 978.7 hPa | 0 mm | 6.26 m/s, 269° | - | - |
* Rain latest hour (hover to see other rain measurements)
** Current wind speed in m/s (hover to see current wind gust speed)